createdAt,value
2018-04-26T00:01:51.973Z,10.20
2018-04-26T00:04:20.669Z,10.10
2018-04-26T00:06:48.528Z,10.10
2018-04-26T00:09:16.599Z,10.00
2018-04-26T00:11:44.477Z,10.00
2018-04-26T00:14:12.332Z,10.10
2018-04-26T00:16:40.656Z,9.90
2018-04-26T00:19:08.591Z,10.00
2018-04-26T00:21:36.448Z,10.20
2018-04-26T00:24:04.621Z,10.20
2018-04-26T00:26:32.487Z,10.10
2018-04-26T00:29:00.355Z,10.10
2018-04-26T00:31:28.175Z,10.10
2018-04-26T00:33:56.099Z,10.00
2018-04-26T00:36:24.164Z,9.80
2018-04-26T00:38:52.028Z,9.70
2018-04-26T00:41:19.898Z,9.80
2018-04-26T00:43:47.868Z,9.50
2018-04-26T00:46:15.737Z,9.60
2018-04-26T00:48:43.601Z,9.70
2018-04-26T00:51:11.469Z,9.70
2018-04-26T00:53:39.847Z,9.80
2018-04-26T00:56:07.713Z,9.70
2018-04-26T00:58:35.518Z,9.80
2018-04-26T01:01:04.166Z,9.40
2018-04-26T01:03:32.004Z,9.40
2018-04-26T01:06:00.003Z,9.40
2018-04-26T01:08:27.981Z,9.50
2018-04-26T01:10:55.840Z,9.60
2018-04-26T01:13:23.569Z,9.60
2018-04-26T01:15:51.827Z,9.50
2018-04-26T01:18:19.564Z,9.50
2018-04-26T01:20:48.091Z,9.30
2018-04-26T01:23:15.878Z,9.30
2018-04-26T01:25:44.390Z,9.30
2018-04-26T01:28:12.249Z,9.30
2018-04-26T01:30:40.055Z,9.30
2018-04-26T01:33:07.861Z,9.40
2018-04-26T01:35:35.636Z,9.40
2018-04-26T01:38:03.430Z,9.10
2018-04-26T01:40:32.462Z,9.30
2018-04-26T01:43:00.269Z,9.30
2018-04-26T01:45:28.129Z,9.30
2018-04-26T01:47:57.228Z,9.00
2018-04-26T01:50:25.094Z,9.10
2018-04-26T01:52:53.072Z,9.10
2018-04-26T01:55:20.938Z,9.10
2018-04-26T01:57:50.313Z,9.10
2018-04-26T02:00:18.312Z,9.30
2018-04-26T02:02:47.010Z,9.40
2018-04-26T02:05:15.884Z,9.20
2018-04-26T02:07:43.748Z,9.10
2018-04-26T02:10:11.617Z,9.20
2018-04-26T02:12:39.689Z,9.20
2018-04-26T02:15:09.090Z,9.20
2018-04-26T02:17:36.959Z,9.20
2018-04-26T02:20:04.937Z,9.00
2018-04-26T02:22:32.899Z,9.20
2018-04-26T02:25:02.272Z,9.20
2018-04-26T02:27:30.212Z,9.20
2018-04-26T02:29:58.037Z,9.30
2018-04-26T02:32:25.801Z,9.60
2018-04-26T02:34:53.767Z,9.50
2018-04-26T02:37:23.170Z,9.60
2018-04-26T02:39:51.048Z,9.50
2018-04-26T02:42:18.907Z,9.30
2018-04-26T02:44:46.879Z,9.30
2018-04-26T02:47:16.686Z,9.20
2018-04-26T02:49:44.557Z,9.20
2018-04-26T02:52:13.246Z,9.30
2018-04-26T02:54:41.107Z,9.30
2018-04-26T02:57:08.978Z,9.10
2018-04-26T02:59:37.051Z,8.90
2018-04-26T03:02:04.914Z,9.10
2018-04-26T03:04:32.799Z,9.00
2018-04-26T03:07:00.733Z,9.00
2018-04-26T03:09:28.619Z,9.10
2018-04-26T03:11:56.689Z,9.10
2018-04-26T03:14:24.557Z,9.00
2018-04-26T03:16:52.428Z,8.90
2018-04-26T03:19:20.294Z,9.10
2018-04-26T03:21:48.169Z,9.20
2018-04-26T03:24:16.244Z,9.20
2018-04-26T03:26:44.105Z,9.00
2018-04-26T03:29:11.974Z,9.10
2018-04-26T03:31:40.244Z,9.20
2018-04-26T03:34:08.111Z,9.30
2018-04-26T03:36:36.807Z,9.40
2018-04-26T03:39:04.877Z,9.40
2018-04-26T03:41:32.736Z,9.50
2018-04-26T03:44:00.614Z,9.60
2018-04-26T03:46:28.546Z,9.60
2018-04-26T03:48:56.851Z,9.40
2018-04-26T03:51:24.715Z,9.50
2018-04-26T03:53:52.760Z,9.30
2018-04-26T03:56:20.665Z,9.20
2018-04-26T03:58:48.521Z,8.70
2018-04-26T04:01:28.518Z,8.50
2018-04-26T04:04:08.325Z,8.30
2018-04-26T04:06:37.219Z,8.50
2018-04-26T04:09:05.180Z,8.60
2018-04-26T04:11:33.053Z,8.70
2018-04-26T04:14:00.918Z,8.60
2018-04-26T04:16:28.792Z,8.70
2018-04-26T04:18:56.763Z,8.80
2018-04-26T04:21:24.622Z,8.80
2018-04-26T04:23:52.497Z,8.80
2018-04-26T04:26:20.762Z,8.60
2018-04-26T04:28:53.411Z,8.60
2018-04-26T04:31:23.284Z,8.70
2018-04-26T04:33:51.943Z,8.80
2018-04-26T04:36:19.917Z,8.80
2018-04-26T04:38:48.144Z,8.90
2018-04-26T04:41:15.903Z,8.90
2018-04-26T04:43:43.899Z,8.90
2018-04-26T04:46:11.800Z,8.80
2018-04-26T04:48:39.761Z,8.80
2018-04-26T04:51:07.627Z,8.70
2018-04-26T04:53:35.598Z,8.80
2018-04-26T04:56:05.002Z,9.10
2018-04-26T04:58:33.903Z,9.10
2018-04-26T05:01:02.579Z,9.30
2018-04-26T05:03:30.446Z,9.30
2018-04-26T05:05:58.313Z,9.50
2018-04-26T05:08:27.217Z,9.50
2018-04-26T05:10:55.175Z,9.60
2018-04-26T05:13:23.041Z,9.60
2018-04-26T05:15:50.916Z,9.60
2018-04-26T05:18:18.878Z,9.60
2018-04-26T05:20:47.156Z,9.60
2018-04-26T05:23:14.960Z,9.60
2018-04-26T05:25:43.639Z,9.60
2018-04-26T05:28:11.885Z,9.60
2018-04-26T05:30:39.750Z,9.60
2018-04-26T05:33:07.616Z,9.70
2018-04-26T05:35:35.483Z,9.80
2018-04-26T05:38:03.349Z,9.70
2018-04-26T05:40:31.396Z,9.70
2018-04-26T05:42:59.197Z,9.70
2018-04-26T05:45:27.056Z,9.80
2018-04-26T05:47:55.126Z,9.80
2018-04-26T05:50:23.096Z,9.90
2018-04-26T05:52:50.965Z,9.90
2018-04-26T05:55:18.832Z,9.90
2018-04-26T05:57:47.527Z,10.00
2018-04-26T06:00:15.363Z,10.00
2018-04-26T06:02:43.252Z,10.00
2018-04-26T06:05:11.127Z,10.10
2018-04-26T06:07:39.088Z,10.20
2018-04-26T06:10:06.953Z,10.10
2018-04-26T06:12:34.787Z,10.00
2018-04-26T06:15:02.550Z,10.10
2018-04-26T06:17:30.326Z,9.90
2018-04-26T06:19:58.289Z,10.10
2018-04-26T06:22:26.061Z,10.40
2018-04-26T06:24:53.806Z,10.50
2018-04-26T06:27:21.649Z,10.60
2018-04-26T06:29:50.174Z,10.50
2018-04-26T06:32:17.966Z,10.60
2018-04-26T06:34:45.725Z,10.60
2018-04-26T06:37:13.564Z,10.60
2018-04-26T06:39:41.465Z,10.70
2018-04-26T06:42:09.844Z,10.90
2018-04-26T06:44:37.719Z,11.00
2018-04-26T06:47:05.541Z,10.80
2018-04-26T06:49:33.720Z,11.00
2018-04-26T06:52:02.033Z,11.10
2018-04-26T06:54:29.804Z,11.10
2018-04-26T06:56:57.643Z,11.20
2018-04-26T06:59:25.523Z,11.20
2018-04-26T07:01:53.326Z,11.10
2018-04-26T07:04:21.807Z,11.80
2018-04-26T07:06:50.457Z,12.20
2018-04-26T07:09:18.530Z,12.20
2018-04-26T07:11:46.395Z,11.90
2018-04-26T07:14:14.183Z,12.30
2018-04-26T07:16:42.333Z,13.00
2018-04-26T07:19:10.201Z,12.40
2018-04-26T07:21:38.169Z,12.20
2018-04-26T07:24:06.037Z,12.50
2018-04-26T07:26:33.908Z,13.20
2018-04-26T07:29:01.876Z,14.90
2018-04-26T07:31:29.843Z,15.30
2018-04-26T07:33:57.712Z,15.50
2018-04-26T07:36:25.578Z,15.40
2018-04-26T07:38:53.547Z,14.60
2018-04-26T07:41:21.343Z,13.40
2018-04-26T07:43:50.001Z,13.30
2018-04-26T07:46:18.191Z,13.20
2018-04-26T07:48:46.042Z,14.00
2018-04-26T07:51:13.906Z,14.70
2018-04-26T07:53:42.286Z,14.50
2018-04-26T07:56:10.049Z,15.00
2018-04-26T07:58:37.918Z,14.60
2018-04-26T08:01:05.989Z,14.50
2018-04-26T08:03:33.856Z,14.90
2018-04-26T08:06:01.724Z,15.10
2018-04-26T08:08:29.590Z,15.30
2018-04-26T08:10:57.458Z,15.90
2018-04-26T08:13:25.325Z,15.70
2018-04-26T08:15:53.192Z,16.30
2018-04-26T08:18:21.469Z,16.10
2018-04-26T08:20:49.336Z,16.90
2018-04-26T08:23:17.202Z,17.90
2018-04-26T08:25:45.075Z,18.50
2018-04-26T08:28:12.788Z,19.10
2018-04-26T08:30:41.023Z,20.00
2018-04-26T08:33:08.739Z,19.40
2018-04-26T08:35:36.460Z,19.90
2018-04-26T08:38:04.407Z,20.50
2018-04-26T08:40:32.273Z,20.50
2018-04-26T08:43:00.346Z,18.50
2018-04-26T08:45:28.221Z,19.40
2018-04-26T08:47:56.083Z,19.20
2018-04-26T08:50:25.688Z,20.70
2018-04-26T08:52:53.404Z,20.70
2018-04-26T08:55:21.125Z,21.30
2018-04-26T08:57:48.982Z,20.80
2018-04-26T09:00:17.669Z,19.90
2018-04-26T09:02:45.428Z,19.80
2018-04-26T09:05:13.198Z,20.00
2018-04-26T09:07:40.924Z,21.10
2018-04-26T09:10:08.826Z,21.00
2018-04-26T09:12:36.544Z,19.80
2018-04-26T09:15:04.335Z,19.70
2018-04-26T09:17:32.246Z,20.40
2018-04-26T09:20:00.039Z,20.90
2018-04-26T09:22:27.768Z,20.60
2018-04-26T09:24:55.555Z,20.20
2018-04-26T09:27:24.036Z,18.40
2018-04-26T09:29:52.507Z,17.50
2018-04-26T09:32:21.136Z,17.10
2018-04-26T09:34:49.038Z,17.10
2018-04-26T09:37:16.901Z,17.10
2018-04-26T09:39:44.769Z,17.20
2018-04-26T09:42:12.638Z,17.10
2018-04-26T09:44:40.711Z,16.90
2018-04-26T09:47:08.575Z,16.60
2018-04-26T09:49:36.446Z,16.20
2018-04-26T09:52:04.751Z,15.30
2018-04-26T09:54:33.236Z,14.80
2018-04-26T09:57:01.875Z,15.10
2018-04-26T09:59:29.637Z,15.10
2018-04-26T10:02:03.459Z,15.20
2018-04-26T10:04:36.982Z,14.90
2018-04-26T10:07:05.644Z,14.10
2018-04-26T10:09:33.715Z,14.00
2018-04-26T10:12:01.519Z,13.90
2018-04-26T10:14:30.166Z,15.10
2018-04-26T10:16:58.422Z,15.00
2018-04-26T10:19:27.025Z,16.90
2018-04-26T10:21:54.817Z,16.90
2018-04-26T10:24:23.476Z,15.60
2018-04-26T10:26:51.343Z,15.50
2018-04-26T10:29:19.209Z,13.90
2018-04-26T10:31:47.078Z,12.90
2018-04-26T10:34:14.945Z,12.30
2018-04-26T10:36:43.017Z,11.90
2018-04-26T10:39:10.882Z,11.80
2018-04-26T10:41:38.750Z,11.90
2018-04-26T10:44:06.505Z,12.50
2018-04-26T10:46:34.272Z,13.60
2018-04-26T10:49:01.983Z,14.70
2018-04-26T10:51:30.464Z,16.30
2018-04-26T10:53:58.983Z,16.70
2018-04-26T10:56:26.715Z,16.70
2018-04-26T10:58:55.228Z,17.40
2018-04-26T11:01:22.942Z,17.40
2018-04-26T11:03:51.457Z,18.70
2018-04-26T11:06:19.626Z,18.60
2018-04-26T11:08:47.344Z,18.70
2018-04-26T11:11:15.058Z,18.10
2018-04-26T11:13:43.302Z,16.60
2018-04-26T11:16:11.798Z,15.50
2018-04-26T11:18:40.279Z,15.70
2018-04-26T11:21:08.797Z,16.30
2018-04-26T11:23:36.528Z,16.30
2018-04-26T11:26:05.087Z,17.30
2018-04-26T11:28:32.807Z,17.30
2018-04-26T11:31:00.577Z,17.60
2018-04-26T11:33:28.318Z,17.80
2018-04-26T11:35:56.085Z,17.70
2018-04-26T11:38:23.833Z,17.60
2018-04-26T11:40:52.715Z,17.10
2018-04-26T11:43:21.206Z,17.50
2018-04-26T11:45:49.680Z,17.60
2018-04-26T11:48:18.563Z,17.20
2018-04-26T11:50:47.046Z,17.20
2018-04-26T11:53:15.542Z,17.30
2018-04-26T11:55:44.421Z,17.20
2018-04-26T11:58:12.899Z,16.80
2018-04-26T12:00:41.393Z,17.30
2018-04-26T12:03:10.040Z,17.90
2018-04-26T12:05:38.733Z,18.70
2018-04-26T12:08:06.495Z,18.70
2018-04-26T12:10:34.279Z,18.30
2018-04-26T12:13:02.063Z,18.00
2018-04-26T12:15:30.544Z,17.60
2018-04-26T12:17:59.048Z,18.30
2018-04-26T12:20:27.215Z,18.20
2018-04-26T12:22:54.928Z,19.00
2018-04-26T12:25:22.662Z,19.40
2018-04-26T12:27:50.420Z,19.10
2018-04-26T12:30:18.204Z,19.10
2018-04-26T12:32:45.955Z,19.90
2018-04-26T12:35:13.848Z,21.10
2018-04-26T12:37:41.669Z,21.80
2018-04-26T12:40:10.130Z,19.90
2018-04-26T12:42:38.650Z,19.80
2018-04-26T12:45:06.363Z,19.80
2018-04-26T12:47:34.358Z,20.50
2018-04-26T12:50:02.181Z,21.10
2018-04-26T12:52:30.043Z,21.30
2018-04-26T12:54:57.910Z,21.30
2018-04-26T12:57:25.777Z,20.60
2018-04-26T12:59:53.746Z,19.90
2018-04-26T13:02:21.614Z,19.60
2018-04-26T13:04:49.488Z,19.30
2018-04-26T13:07:18.886Z,20.40
2018-04-26T13:09:46.753Z,20.40
2018-04-26T13:12:14.618Z,20.50
2018-04-26T13:14:42.488Z,19.70
2018-04-26T13:17:10.359Z,19.60
2018-04-26T13:19:39.041Z,19.50
2018-04-26T13:22:06.907Z,19.50
2018-04-26T13:24:34.772Z,19.00
2018-04-26T13:27:02.908Z,18.70
2018-04-26T13:29:31.533Z,18.20
2018-04-26T13:31:59.400Z,18.20
2018-04-26T13:34:28.086Z,19.00
2018-04-26T13:36:55.952Z,19.00
2018-04-26T13:39:24.028Z,19.00
2018-04-26T13:41:51.891Z,19.10
2018-04-26T13:44:19.758Z,19.50
2018-04-26T13:46:47.624Z,20.10
2018-04-26T13:49:15.423Z,19.90
2018-04-26T13:51:44.081Z,19.60
2018-04-26T13:54:11.944Z,19.60
2018-04-26T13:56:39.814Z,19.30
2018-04-26T13:59:07.698Z,19.20
2018-04-26T14:01:35.737Z,19.40
2018-04-26T14:04:03.470Z,19.50
2018-04-26T14:06:31.211Z,19.30
2018-04-26T14:08:59.754Z,19.40
2018-04-26T14:11:27.468Z,19.40
2018-04-26T14:13:55.947Z,18.90
2018-04-26T14:16:24.471Z,18.20
2018-04-26T14:18:52.195Z,18.10
2018-04-26T14:21:21.080Z,17.50
2018-04-26T14:23:49.566Z,17.70
2018-04-26T14:26:17.292Z,17.70
2018-04-26T14:28:45.081Z,18.50
2018-04-26T14:31:12.835Z,18.70
2018-04-26T14:33:40.548Z,18.80
2018-04-26T14:36:08.449Z,19.00
2018-04-26T14:38:36.419Z,19.30
2018-04-26T14:41:04.387Z,19.00
2018-04-26T14:43:32.329Z,19.40
2018-04-26T14:46:00.868Z,20.00
2018-04-26T14:48:29.627Z,19.80
2018-04-26T14:50:57.335Z,19.80
2018-04-26T14:53:25.807Z,19.60
2018-04-26T14:55:54.371Z,19.80
2018-04-26T14:58:22.223Z,19.80
2018-04-26T15:00:50.092Z,19.90
2018-04-26T15:03:17.957Z,20.30
2018-04-26T15:05:45.827Z,20.20
2018-04-26T15:08:14.000Z,20.20
2018-04-26T15:10:42.583Z,20.00
2018-04-26T15:13:10.450Z,19.90
2018-04-26T15:15:38.451Z,20.20
2018-04-26T15:18:07.419Z,20.20
2018-04-26T15:20:35.997Z,19.90
2018-04-26T15:23:04.683Z,19.30
2018-04-26T15:25:32.391Z,19.30
2018-04-26T15:28:00.930Z,18.30
2018-04-26T15:30:28.804Z,18.30
2018-04-26T15:32:56.518Z,18.00
2018-04-26T15:35:24.286Z,17.80
2018-04-26T15:37:56.801Z,18.20
2018-04-26T15:40:25.321Z,18.10
2018-04-26T15:42:53.948Z,18.00
2018-04-26T15:45:21.701Z,17.90
2018-04-26T15:47:49.439Z,17.80
2018-04-26T15:53:33.724Z,16.70
2018-04-26T15:56:13.788Z,16.60
2018-04-26T16:02:17.843Z,17.20
2018-04-26T16:04:57.467Z,17.30
2018-04-26T16:07:51.741Z,17.40
2018-04-26T16:13:48.808Z,16.80
2018-04-26T16:19:47.300Z,16.70
2018-04-26T16:22:33.571Z,16.10
2018-04-26T16:25:13.342Z,16.00
2018-04-26T16:27:53.666Z,16.00
2018-04-26T16:30:33.132Z,16.00
2018-04-26T16:33:12.727Z,16.00
2018-04-26T16:35:52.317Z,16.00
2018-04-26T16:38:31.978Z,15.90
2018-04-26T16:41:00.467Z,15.80
2018-04-26T16:43:29.030Z,15.60
2018-04-26T16:45:57.535Z,15.50
2018-04-26T16:48:26.032Z,15.30
2018-04-26T16:50:53.792Z,15.30
2018-04-26T16:53:21.539Z,15.30
2018-04-26T16:56:07.726Z,15.20
2018-04-26T16:58:53.330Z,15.10
2018-04-26T17:01:23.473Z,15.00
2018-04-26T17:03:52.190Z,15.20
2018-04-26T17:06:20.055Z,15.20
2018-04-26T17:08:47.924Z,15.30
2018-04-26T17:11:15.789Z,15.30
2018-04-26T17:13:44.580Z,15.30
2018-04-26T17:16:12.329Z,15.20
2018-04-26T17:18:40.213Z,15.00
2018-04-26T17:21:08.081Z,15.00
2018-04-26T17:23:35.844Z,14.80
2018-04-26T17:26:03.605Z,14.60
2018-04-26T17:28:31.334Z,14.50
2018-04-26T17:30:59.313Z,14.50
2018-04-26T17:33:27.207Z,14.40
2018-04-26T17:35:55.285Z,14.30
2018-04-26T17:38:23.148Z,14.30
2018-04-26T17:40:51.014Z,14.30
2018-04-26T17:43:18.884Z,14.20
2018-04-26T17:45:46.749Z,14.10
2018-04-26T17:48:14.547Z,14.00
2018-04-26T17:50:43.407Z,13.80
2018-04-26T17:53:11.352Z,13.80
2018-04-26T17:55:39.964Z,13.60
2018-04-26T17:58:07.997Z,13.60
2018-04-26T18:00:37.229Z,13.40
2018-04-26T18:03:05.835Z,13.40
2018-04-26T18:05:33.931Z,13.40
2018-04-26T18:08:05.847Z,13.20
2018-04-26T18:10:37.826Z,13.20
2018-04-26T18:13:10.761Z,13.10
2018-04-26T18:15:38.669Z,12.90
2018-04-26T18:18:06.533Z,12.90
2018-04-26T18:20:34.400Z,12.80
2018-04-26T18:23:02.372Z,12.80
2018-04-26T18:25:32.277Z,12.70
2018-04-26T18:28:02.713Z,12.60
2018-04-26T18:30:31.399Z,12.40
2018-04-26T18:32:59.471Z,12.40
2018-04-26T18:35:29.095Z,12.40
2018-04-26T18:37:58.947Z,12.20
2018-04-26T18:40:26.857Z,12.10
2018-04-26T18:42:57.454Z,12.00
2018-04-26T18:45:26.894Z,11.90
2018-04-26T18:47:54.860Z,11.80
2018-04-26T18:50:23.443Z,11.80
2018-04-26T18:52:51.759Z,11.70
2018-04-26T18:55:20.703Z,11.50
2018-04-26T18:57:54.678Z,11.50
2018-04-26T19:00:25.146Z,11.20
2018-04-26T19:02:54.967Z,11.20
2018-04-26T19:05:23.825Z,11.10
2018-04-26T19:07:51.720Z,11.00
2018-04-26T19:10:20.409Z,10.90
2018-04-26T19:12:48.276Z,10.90
2018-04-26T19:15:16.760Z,10.70
2018-04-26T19:17:46.369Z,10.40
2018-04-26T19:20:14.237Z,10.40
2018-04-26T19:22:42.099Z,10.40
2018-04-26T19:25:09.891Z,10.30
2018-04-26T19:27:37.737Z,10.30
2018-04-26T19:30:06.943Z,10.10
2018-04-26T19:32:36.796Z,10.10
2018-04-26T19:35:05.264Z,10.00
2018-04-26T19:37:33.912Z,9.70
2018-04-26T19:40:05.686Z,9.70
2018-04-26T19:42:34.562Z,9.40
2018-04-26T19:45:04.940Z,9.40
2018-04-26T19:47:34.272Z,9.20
2018-04-26T19:50:04.250Z,8.80
2018-04-26T19:52:34.351Z,8.80
2018-04-26T19:55:04.245Z,8.80
2018-04-26T19:57:32.107Z,8.70
2018-04-26T19:59:59.975Z,8.70
2018-04-26T20:02:29.014Z,8.50
2018-04-26T20:04:58.092Z,8.50
2018-04-26T20:07:27.088Z,8.50
2018-04-26T20:09:56.661Z,8.40
2018-04-26T20:12:25.379Z,8.40
2018-04-26T20:14:53.425Z,8.40
2018-04-26T20:17:22.943Z,8.40
2018-04-26T20:19:51.553Z,8.20
2018-04-26T20:22:20.199Z,8.20
2018-04-26T20:24:48.067Z,8.20
2018-04-26T20:27:15.935Z,7.90
2018-04-26T20:29:43.803Z,8.30
2018-04-26T20:32:11.670Z,8.40
2018-04-26T20:34:39.536Z,8.50
2018-04-26T20:37:07.343Z,8.40
2018-04-26T20:39:35.169Z,8.30
2018-04-26T20:42:03.044Z,8.30
2018-04-26T20:44:42.781Z,8.20
2018-04-26T20:47:10.649Z,8.10
2018-04-26T20:49:38.517Z,8.10
2018-04-26T20:52:06.979Z,8.10
2018-04-26T20:54:34.969Z,8.10
2018-04-26T20:57:02.836Z,8.10
2018-04-26T20:59:30.712Z,8.00
2018-04-26T21:01:58.569Z,7.80
2018-04-26T21:04:26.543Z,7.60
2018-04-26T21:06:54.923Z,7.60
2018-04-26T21:09:22.683Z,7.80
2018-04-26T21:11:50.550Z,7.90
2018-04-26T21:14:18.420Z,8.00
2018-04-26T21:16:46.289Z,7.90
2018-04-26T21:19:14.255Z,8.00
2018-04-26T21:21:41.978Z,8.00
2018-04-26T21:24:09.887Z,8.00
2018-04-26T21:26:37.686Z,8.00
2018-04-26T21:29:06.339Z,8.10
2018-04-26T21:31:34.306Z,8.00
2018-04-26T21:34:02.177Z,8.10
2018-04-26T21:36:30.044Z,8.10
2018-04-26T21:38:58.013Z,8.10
2018-04-26T21:41:25.885Z,8.20
2018-04-26T21:43:53.755Z,8.20
2018-04-26T21:46:21.823Z,8.20
2018-04-26T21:48:50.508Z,8.20
2018-04-26T21:51:24.043Z,8.20
2018-04-26T21:53:58.282Z,8.20
2018-04-26T21:56:31.822Z,8.20
2018-04-26T21:59:05.324Z,8.20
2018-04-26T22:01:38.752Z,8.10
2018-04-26T22:04:17.236Z,8.00
2018-04-26T22:06:45.310Z,8.00
2018-04-26T22:09:13.178Z,8.00
2018-04-26T22:11:41.042Z,8.00
2018-04-26T22:14:08.910Z,8.00
2018-04-26T22:16:36.982Z,8.00
2018-04-26T22:19:04.854Z,8.00
2018-04-26T22:21:32.717Z,8.00
2018-04-26T22:24:00.583Z,8.10
2018-04-26T22:26:28.450Z,8.20
2018-04-26T22:28:56.215Z,8.20
2018-04-26T22:31:24.288Z,8.30
2018-04-26T22:33:52.158Z,8.30
2018-04-26T22:36:19.918Z,8.50
2018-04-26T22:38:47.686Z,8.50
2018-04-26T22:41:15.552Z,8.50
2018-04-26T22:43:43.419Z,8.60
2018-04-26T22:46:11.492Z,8.60
2018-04-26T22:48:39.358Z,8.60
2018-04-26T22:51:07.225Z,8.60
2018-04-26T22:53:35.096Z,8.60
2018-04-26T22:56:02.962Z,8.70
2018-04-26T22:58:30.825Z,8.70
2018-04-26T23:00:58.626Z,8.80
2018-04-26T23:03:27.279Z,8.70
2018-04-26T23:05:55.149Z,8.70
2018-04-26T23:08:23.013Z,8.70
2018-04-26T23:10:50.984Z,8.70
2018-04-26T23:13:18.849Z,8.70
2018-04-26T23:15:46.722Z,8.70
2018-04-26T23:18:14.584Z,8.80
2018-04-26T23:20:42.387Z,8.80
2018-04-26T23:23:11.446Z,8.70
2018-04-26T23:25:39.235Z,8.70
2018-04-26T23:28:07.896Z,8.70
2018-04-26T23:30:35.764Z,8.60
2018-04-26T23:33:03.478Z,8.60
2018-04-26T23:35:31.199Z,8.50
2018-04-26T23:37:58.964Z,8.50
2018-04-26T23:40:26.663Z,8.40
2018-04-26T23:42:55.151Z,8.40
2018-04-26T23:45:23.664Z,8.40
2018-04-26T23:47:51.381Z,8.40
2018-04-26T23:50:20.307Z,8.40
2018-04-26T23:52:48.020Z,8.40
2018-04-26T23:55:15.739Z,8.30
2018-04-26T23:57:43.482Z,8.40
